sensor_id;sensor_type;location;lat;lon;timestamp;pressure;altitude;pressure_sealevel;temperature;humidity
68145;BME280;55400;51.824;-0.196;2023-05-11T00:05:22;100442.54;;;13.38;70.51
68145;BME280;55400;51.824;-0.196;2023-05-11T00:09:21;100443.32;;;13.37;70.46
68145;BME280;55400;51.824;-0.196;2023-05-11T00:13:22;100442.40999999999;;;13.38;70.14
68145;BME280;55400;51.824;-0.196;2023-05-11T00:17:22;100442.40999999999;;;13.37;70.14
68145;BME280;55400;51.824;-0.196;2023-05-11T00:21:22;100436.44;;;13.35;70.39
68145;BME280;55400;51.824;-0.196;2023-05-11T00:25:21;100436.44;;;13.33;70.39
68145;BME280;55400;51.824;-0.196;2023-05-11T00:29:22;100438.5;;;13.30;70.51
68145;BME280;55400;51.824;-0.196;2023-05-11T00:33:22;100438.5;;;13.28;70.54
68145;BME280;55400;51.824;-0.196;2023-05-11T00:37:22;100435.24;;;13.25;70.34
68145;BME280;55400;51.824;-0.196;2023-05-11T00:41:22;100437.34;;;13.20;70.20
68145;BME280;55400;51.824;-0.196;2023-05-11T00:45:22;100434.77;;;13.18;70.20
68145;BME280;55400;51.824;-0.196;2023-05-11T00:49:22;100440.75;;;13.15;70.07
68145;BME280;55400;51.824;-0.196;2023-05-11T00:53:22;100440.29000000001;;;13.10;70.03
68145;BME280;55400;51.824;-0.196;2023-05-11T00:57:22;100441.61;;;13.07;70.33
68145;BME280;55400;51.824;-0.196;2023-05-11T01:01:22;100441.61;;;13.05;70.33
68145;BME280;55400;51.824;-0.196;2023-05-11T01:05:22;100440.59;;;13.03;70.63
68145;BME280;55400;51.824;-0.196;2023-05-11T01:09:25;100440.07;;;13.02;70.85
68145;BME280;55400;51.824;-0.196;2023-05-11T01:13:23;100444.05;;;13.00;70.85
68145;BME280;55400;51.824;-0.196;2023-05-11T01:17:22;100447.99;;;12.99;70.83
68145;BME280;55400;51.824;-0.196;2023-05-11T01:21:22;100449.84;;;12.97;71.07
68145;BME280;55400;51.824;-0.196;2023-05-11T01:25:26;100449.84;;;12.96;71.07
68145;BME280;55400;51.824;-0.196;2023-05-11T01:33:23;100445.47;;;12.94;70.85
68145;BME280;55400;51.824;-0.196;2023-05-11T01:37:22;100453.45;;;12.88;70.84
68145;BME280;55400;51.824;-0.196;2023-05-11T01:41:22;100457.34999999999;;;12.87;71.04
68145;BME280;55400;51.824;-0.196;2023-05-11T01:45:22;100455.69;;;12.85;71.16
68145;BME280;55400;51.824;-0.196;2023-05-11T01:49:22;100455.69;;;12.84;71.22
68145;BME280;55400;51.824;-0.196;2023-05-11T01:53:22;100462.77;;;12.83;71.15
68145;BME280;55400;51.824;-0.196;2023-05-11T01:57:22;100472.36;;;12.79;71.00
68145;BME280;55400;51.824;-0.196;2023-05-11T02:01:22;100472.83;;;12.78;71.22
68145;BME280;55400;51.824;-0.196;2023-05-11T02:09:22;100474.08;;;12.79;71.03
68145;BME280;55400;51.824;-0.196;2023-05-11T02:21:22;100479.22;;;12.77;71.16
68145;BME280;55400;51.824;-0.196;2023-05-11T02:25:22;100479.22;;;12.74;71.10
68145;BME280;55400;51.824;-0.196;2023-05-11T02:29:22;100482.43;;;12.71;71.38
68145;BME280;55400;51.824;-0.196;2023-05-11T02:33:24;100485.08;;;12.66;71.50
68145;BME280;55400;51.824;-0.196;2023-05-11T02:37:23;100483.26;;;12.58;71.66
68145;BME280;55400;51.824;-0.196;2023-05-11T02:41:23;100485.01;;;12.51;71.66
68145;BME280;55400;51.824;-0.196;2023-05-11T02:45:22;100485.01;;;12.48;71.86
68145;BME280;55400;51.824;-0.196;2023-05-11T02:49:22;100484.34;;;12.47;71.90
68145;BME280;55400;51.824;-0.196;2023-05-11T02:57:22;100489.39;;;12.48;72.15
68145;BME280;55400;51.824;-0.196;2023-05-11T03:01:22;100485.91;;;12.47;72.15
68145;BME280;55400;51.824;-0.196;2023-05-11T03:05:22;100487.92;;;12.45;71.99
68145;BME280;55400;51.824;-0.196;2023-05-11T03:13:22;100494.34999999999;;;12.41;71.75
68145;BME280;55400;51.824;-0.196;2023-05-11T03:17:22;100492.98999999999;;;12.38;71.91
68145;BME280;55400;51.824;-0.196;2023-05-11T03:21:22;100490.07;;;12.39;72.34
68145;BME280;55400;51.824;-0.196;2023-05-11T03:29:22;100486.58;;;12.38;72.43
68145;BME280;55400;51.824;-0.196;2023-05-11T03:33:22;100487.94;;;12.34;72.39
68145;BME280;55400;51.824;-0.196;2023-05-11T03:37:22;100487.94;;;12.32;72.55
68145;BME280;55400;51.824;-0.196;2023-05-11T03:41:22;100484.55;;;12.31;72.61
68145;BME280;55400;51.824;-0.196;2023-05-11T03:45:22;100486.19;;;12.30;72.63
68145;BME280;55400;51.824;-0.196;2023-05-11T03:49:22;100486.19;;;12.29;72.48
68145;BME280;55400;51.824;-0.196;2023-05-11T03:53:22;100489.4;;;12.30;72.37
68145;BME280;55400;51.824;-0.196;2023-05-11T03:57:23;100492.11;;;12.31;72.41
68145;BME280;55400;51.824;-0.196;2023-05-11T04:01:22;100493.76999999999;;;12.30;72.21
68145;BME280;55400;51.824;-0.196;2023-05-11T04:09:22;100493.62;;;12.29;71.90
68145;BME280;55400;51.824;-0.196;2023-05-11T04:13:22;100493.62;;;12.24;71.69
68145;BME280;55400;51.824;-0.196;2023-05-11T04:17:22;100495.28;;;12.19;71.69
68145;BME280;55400;51.824;-0.196;2023-05-11T04:21:22;100491.31999999999;;;12.16;71.86
68145;BME280;55400;51.824;-0.196;2023-05-11T04:25:22;100493.89;;;12.10;72.02
68145;BME280;55400;51.824;-0.196;2023-05-11T04:29:22;100492.39;;;12.02;72.12
68145;BME280;55400;51.824;-0.196;2023-05-11T04:33:22;100492.47;;;11.94;72.12
68145;BME280;55400;51.824;-0.196;2023-05-11T04:37:22;100493.12999999999;;;11.90;72.43
68145;BME280;55400;51.824;-0.196;2023-05-11T04:41:22;100493.12999999999;;;11.89;72.47
68145;BME280;55400;51.824;-0.196;2023-05-11T04:45:22;100494.51000000001;;;11.88;72.69
68145;BME280;55400;51.824;-0.196;2023-05-11T04:49:22;100499.73;;;11.86;72.63
68145;BME280;55400;51.824;-0.196;2023-05-11T04:57:22;100504.0;;;11.89;72.86
68145;BME280;55400;51.824;-0.196;2023-05-11T05:01:22;100504.0;;;11.91;73.09
68145;BME280;55400;51.824;-0.196;2023-05-11T05:05:23;100508.98;;;11.94;72.90
68145;BME280;55400;51.824;-0.196;2023-05-11T05:09:22;100509.03;;;11.97;72.97
68145;BME280;55400;51.824;-0.196;2023-05-11T05:13:23;100513.03;;;11.99;73.08
68145;BME280;55400;51.824;-0.196;2023-05-11T05:21:22;100523.65;;;12.02;73.22
68145;BME280;55400;51.824;-0.196;2023-05-11T05:29:23;100529.24;;;12.04;73.11
68145;BME280;55400;51.824;-0.196;2023-05-11T05:33:22;100531.04;;;12.05;73.15
68145;BME280;55400;51.824;-0.196;2023-05-11T05:37:23;100535.85;;;12.09;73.51
68145;BME280;55400;51.824;-0.196;2023-05-11T05:41:22;100537.41;;;12.11;73.20
68145;BME280;55400;51.824;-0.196;2023-05-11T05:45:23;100541.13;;;12.15;73.01
68145;BME280;55400;51.824;-0.196;2023-05-11T05:49:22;100538.98000000001;;;12.16;72.80
68145;BME280;55400;51.824;-0.196;2023-05-11T05:53:23;100539.83;;;12.20;72.80
68145;BME280;55400;51.824;-0.196;2023-05-11T05:57:22;100540.5;;;12.25;72.72
68145;BME280;55400;51.824;-0.196;2023-05-11T06:01:22;100544.53;;;12.28;72.45
68145;BME280;55400;51.824;-0.196;2023-05-11T06:05:22;100544.53;;;12.30;72.13
68145;BME280;55400;51.824;-0.196;2023-05-11T06:09:23;100542.22;;;12.33;71.99
68145;BME280;55400;51.824;-0.196;2023-05-11T06:13:23;100542.22;;;12.34;71.84
68145;BME280;55400;51.824;-0.196;2023-05-11T06:17:23;100542.3;;;12.35;71.82
68145;BME280;55400;51.824;-0.196;2023-05-11T06:21:22;100548.99;;;12.34;72.00
68145;BME280;55400;51.824;-0.196;2023-05-11T06:25:23;100551.14;;;12.32;71.79
68145;BME280;55400;51.824;-0.196;2023-05-11T06:29:23;100551.14;;;12.33;71.59
68145;BME280;55400;51.824;-0.196;2023-05-11T06:33:23;100556.52;;;12.37;71.91
68145;BME280;55400;51.824;-0.196;2023-05-11T06:37:23;100556.52;;;12.42;71.91
68145;BME280;55400;51.824;-0.196;2023-05-11T06:41:23;100569.48;;;12.45;71.88
68145;BME280;55400;51.824;-0.196;2023-05-11T06:45:23;100566.81999999999;;;12.48;71.97
68145;BME280;55400;51.824;-0.196;2023-05-11T06:49:23;100566.81999999999;;;12.49;71.97
68145;BME280;55400;51.824;-0.196;2023-05-11T06:53:23;100574.56;;;12.50;71.71
68145;BME280;55400;51.824;-0.196;2023-05-11T06:57:23;100576.83;;;12.51;71.49
68145;BME280;55400;51.824;-0.196;2023-05-11T07:01:23;100576.83;;;12.52;71.34
68145;BME280;55400;51.824;-0.196;2023-05-11T07:05:23;100576.31;;;12.56;71.18
68145;BME280;55400;51.824;-0.196;2023-05-11T07:09:23;100575.81;;;12.57;71.09
68145;BME280;55400;51.824;-0.196;2023-05-11T07:13:23;100577.21;;;12.58;70.83
68145;BME280;55400;51.824;-0.196;2023-05-11T07:17:23;100579.13;;;12.65;70.88
68145;BME280;55400;51.824;-0.196;2023-05-11T07:21:23;100581.67;;;12.76;70.72
68145;BME280;55400;51.824;-0.196;2023-05-11T07:25:23;100579.68;;;12.86;70.51
68145;BME280;55400;51.824;-0.196;2023-05-11T07:29:23;100579.68;;;12.92;70.51
68145;BME280;55400;51.824;-0.196;2023-05-11T07:33:23;100579.61;;;13.01;70.22
68145;BME280;55400;51.824;-0.196;2023-05-11T07:37:23;100583.51;;;13.04;70.38
68145;BME280;55400;51.824;-0.196;2023-05-11T07:41:23;100585.97;;;13.15;70.38
68145;BME280;55400;51.824;-0.196;2023-05-11T07:45:23;100587.67;;;13.25;70.39
68145;BME280;55400;51.824;-0.196;2023-05-11T07:49:23;100591.89;;;13.36;69.88
68145;BME280;55400;51.824;-0.196;2023-05-11T07:53:23;100594.8;;;13.49;69.88
68145;BME280;55400;51.824;-0.196;2023-05-11T07:57:23;100595.56999999999;;;13.61;69.68
68145;BME280;55400;51.824;-0.196;2023-05-11T08:01:23;100595.42;;;13.73;68.84
68145;BME280;55400;51.824;-0.196;2023-05-11T08:05:23;100595.42;;;13.76;68.84
68145;BME280;55400;51.824;-0.196;2023-05-11T08:13:23;100602.81;;;13.85;68.00
68145;BME280;55400;51.824;-0.196;2023-05-11T08:17:23;100602.81;;;13.97;68.00
68145;BME280;55400;51.824;-0.196;2023-05-11T08:21:23;100608.51;;;14.03;67.94
68145;BME280;55400;51.824;-0.196;2023-05-11T08:25:23;100607.11;;;14.10;67.58
68145;BME280;55400;51.824;-0.196;2023-05-11T08:29:23;100609.84;;;14.25;67.57
68145;BME280;55400;51.824;-0.196;2023-05-11T08:33:23;100609.84;;;14.43;67.57
68145;BME280;55400;51.824;-0.196;2023-05-11T08:37:23;100613.89;;;14.62;67.06
68145;BME280;55400;51.824;-0.196;2023-05-11T08:41:23;100613.89;;;14.82;66.73
68145;BME280;55400;51.824;-0.196;2023-05-11T08:45:23;100620.48;;;14.97;66.06
68145;BME280;55400;51.824;-0.196;2023-05-11T08:49:23;100621.62;;;14.95;66.06
68145;BME280;55400;51.824;-0.196;2023-05-11T08:53:23;100621.69;;;14.85;64.89
68145;BME280;55400;51.824;-0.196;2023-05-11T08:57:23;100621.69;;;14.81;64.89
68145;BME280;55400;51.824;-0.196;2023-05-11T09:01:23;100617.55;;;14.83;64.59
68145;BME280;55400;51.824;-0.196;2023-05-11T09:05:23;100617.55;;;14.98;64.59
68145;BME280;55400;51.824;-0.196;2023-05-11T09:09:23;100620.2;;;15.19;65.23
68145;BME280;55400;51.824;-0.196;2023-05-11T09:13:23;100618.54;;;15.38;64.95
68145;BME280;55400;51.824;-0.196;2023-05-11T09:17:23;100621.69;;;15.46;63.27
68145;BME280;55400;51.824;-0.196;2023-05-11T09:21:23;100621.69;;;15.61;62.73
68145;BME280;55400;51.824;-0.196;2023-05-11T09:25:24;100620.93;;;15.72;63.12
68145;BME280;55400;51.824;-0.196;2023-05-11T09:29:23;100620.93;;;15.56;62.80
68145;BME280;55400;51.824;-0.196;2023-05-11T09:33:24;100624.67;;;15.42;62.65
68145;BME280;55400;51.824;-0.196;2023-05-11T09:37:23;100617.85;;;15.35;62.65
68145;BME280;55400;51.824;-0.196;2023-05-11T09:41:23;100619.11;;;15.42;62.13
68145;BME280;55400;51.824;-0.196;2023-05-11T09:49:27;100620.1;;;15.34;61.71
68145;BME280;55400;51.824;-0.196;2023-05-11T09:53:26;100620.1;;;15.28;61.71
68145;BME280;55400;51.824;-0.196;2023-05-11T09:57:24;100621.98;;;15.19;62.36
68145;BME280;55400;51.824;-0.196;2023-05-11T10:01:27;100623.40000000001;;;15.16;62.45
68145;BME280;55400;51.824;-0.196;2023-05-11T10:05:23;100624.05;;;15.15;63.03
68145;BME280;55400;51.824;-0.196;2023-05-11T10:09:23;100624.05;;;15.08;63.92
68145;BME280;55400;51.824;-0.196;2023-05-11T10:13:23;100626.4;;;15.10;63.53
68145;BME280;55400;51.824;-0.196;2023-05-11T10:17:23;100624.81;;;15.11;63.15
68145;BME280;55400;51.824;-0.196;2023-05-11T10:21:23;100624.81;;;15.10;63.15
68145;BME280;55400;51.824;-0.196;2023-05-11T10:25:24;100619.96;;;15.24;62.89
68145;BME280;55400;51.824;-0.196;2023-05-11T10:29:23;100620.72;;;15.36;62.89
68145;BME280;55400;51.824;-0.196;2023-05-11T10:33:23;100612.72;;;15.52;61.85
68145;BME280;55400;51.824;-0.196;2023-05-11T10:37:23;100610.23;;;15.83;61.85
68145;BME280;55400;51.824;-0.196;2023-05-11T10:41:25;100609.26;;;16.13;57.83
68145;BME280;55400;51.824;-0.196;2023-05-11T10:45:24;100609.63;;;16.28;59.08
68145;BME280;55400;51.824;-0.196;2023-05-11T10:49:28;100614.0;;;16.29;59.08
68145;BME280;55400;51.824;-0.196;2023-05-11T10:53:28;100614.0;;;16.18;58.05
68145;BME280;55400;51.824;-0.196;2023-05-11T10:57:29;100611.13;;;16.17;59.55
68145;BME280;55400;51.824;-0.196;2023-05-11T11:01:29;100607.53;;;16.18;59.55
68145;BME280;55400;51.824;-0.196;2023-05-11T11:09:23;100608.26;;;16.19;59.42
68145;BME280;55400;51.824;-0.196;2023-05-11T11:13:23;100603.74;;;16.22;57.54
68145;BME280;55400;51.824;-0.196;2023-05-11T11:17:24;100610.16;;;16.31;59.16
68145;BME280;55400;51.824;-0.196;2023-05-11T11:41:27;100590.72;;;16.77;55.78
68145;BME280;55400;51.824;-0.196;2023-05-11T11:45:24;100590.72;;;16.73;55.70
68145;BME280;55400;51.824;-0.196;2023-05-11T11:49:25;100591.81999999999;;;16.70;51.89
68145;BME280;55400;51.824;-0.196;2023-05-11T12:01:24;100595.04;;;16.62;55.27
68145;BME280;55400;51.824;-0.196;2023-05-11T12:09:24;100595.7;;;16.61;55.66
68145;BME280;55400;51.824;-0.196;2023-05-11T12:17:24;100596.23;;;16.57;59.05
68145;BME280;55400;51.824;-0.196;2023-05-11T12:21:24;100596.23;;;16.53;60.73
68145;BME280;55400;51.824;-0.196;2023-05-11T12:25:24;100595.54000000001;;;16.49;60.32
68145;BME280;55400;51.824;-0.196;2023-05-11T12:29:24;100595.54000000001;;;16.47;60.32
68145;BME280;55400;51.824;-0.196;2023-05-11T12:33:24;100596.34;;;16.53;59.75
68145;BME280;55400;51.824;-0.196;2023-05-11T12:37:24;100600.66;;;16.62;59.06
68145;BME280;55400;51.824;-0.196;2023-05-11T12:41:24;100600.66;;;16.73;59.06
68145;BME280;55400;51.824;-0.196;2023-05-11T12:45:24;100601.71;;;16.79;59.35
68145;BME280;55400;51.824;-0.196;2023-05-11T12:49:24;100598.75;;;16.87;58.47
68145;BME280;55400;51.824;-0.196;2023-05-11T12:53:24;100598.75;;;16.99;58.40
68145;BME280;55400;51.824;-0.196;2023-05-11T12:57:24;100600.19;;;17.00;57.90
68145;BME280;55400;51.824;-0.196;2023-05-11T13:01:24;100602.71;;;16.94;56.98
68145;BME280;55400;51.824;-0.196;2023-05-11T13:09:24;100603.88;;;16.96;55.36
68145;BME280;55400;51.824;-0.196;2023-05-11T13:13:25;100596.75;;;17.04;55.68
68145;BME280;55400;51.824;-0.196;2023-05-11T13:17:28;100593.33;;;17.13;55.68
68145;BME280;55400;51.824;-0.196;2023-05-11T13:21:24;100589.36;;;17.24;55.19
68145;BME280;55400;51.824;-0.196;2023-05-11T13:25:24;100591.78;;;17.37;54.88
68145;BME280;55400;51.824;-0.196;2023-05-11T13:29:24;100592.14;;;17.51;54.31
68145;BME280;55400;51.824;-0.196;2023-05-11T13:33:24;100594.79;;;17.61;54.22
68145;BME280;55400;51.824;-0.196;2023-05-11T13:37:24;100598.95;;;17.69;53.58
68145;BME280;55400;51.824;-0.196;2023-05-11T13:41:24;100595.84;;;17.81;53.58
68145;BME280;55400;51.824;-0.196;2023-05-11T13:45:24;100595.31;;;17.98;53.01
68145;BME280;55400;51.824;-0.196;2023-05-11T13:49:24;100595.53;;;18.13;53.01
68145;BME280;55400;51.824;-0.196;2023-05-11T13:53:24;100595.39;;;18.25;51.89
68145;BME280;55400;51.824;-0.196;2023-05-11T13:57:24;100591.88;;;18.34;51.29
68145;BME280;55400;51.824;-0.196;2023-05-11T14:01:24;100587.64;;;18.46;51.29
68145;BME280;55400;51.824;-0.196;2023-05-11T14:05:24;100587.75;;;18.66;51.38
68145;BME280;55400;51.824;-0.196;2023-05-11T14:09:24;100583.84999999999;;;19.03;51.21
68145;BME280;55400;51.824;-0.196;2023-05-11T14:13:24;100581.37000000001;;;19.20;49.85
68145;BME280;55400;51.824;-0.196;2023-05-11T14:17:24;100585.5;;;19.18;49.85
68145;BME280;55400;51.824;-0.196;2023-05-11T14:21:24;100584.05;;;19.17;48.83
68145;BME280;55400;51.824;-0.196;2023-05-11T14:25:24;100584.05;;;19.14;48.81
68145;BME280;55400;51.824;-0.196;2023-05-11T14:29:24;100582.06;;;19.05;48.32
68145;BME280;55400;51.824;-0.196;2023-05-11T14:33:24;100581.84;;;19.06;47.13
68145;BME280;55400;51.824;-0.196;2023-05-11T14:37:24;100582.84;;;19.15;47.13
68145;BME280;55400;51.824;-0.196;2023-05-11T14:41:24;100577.81;;;19.21;48.42
68145;BME280;55400;51.824;-0.196;2023-05-11T14:45:24;100573.35;;;19.17;47.06
68145;BME280;55400;51.824;-0.196;2023-05-11T14:49:24;100571.3;;;19.21;47.06
68145;BME280;55400;51.824;-0.196;2023-05-11T14:53:24;100571.3;;;19.29;48.01
68145;BME280;55400;51.824;-0.196;2023-05-11T14:57:24;100563.62000000001;;;19.36;48.98
68145;BME280;55400;51.824;-0.196;2023-05-11T15:01:24;100566.38;;;19.50;48.98
68145;BME280;55400;51.824;-0.196;2023-05-11T15:05:24;100558.86;;;19.81;48.70
68145;BME280;55400;51.824;-0.196;2023-05-11T15:09:24;100558.86;;;20.01;47.94
68145;BME280;55400;51.824;-0.196;2023-05-11T15:13:24;100568.1;;;19.98;47.41
68145;BME280;55400;51.824;-0.196;2023-05-11T15:17:25;100572.31;;;19.92;46.33
68145;BME280;55400;51.824;-0.196;2023-05-11T15:21:26;100573.05;;;19.86;46.84
68145;BME280;55400;51.824;-0.196;2023-05-11T15:25:24;100572.58;;;19.77;46.22
68145;BME280;55400;51.824;-0.196;2023-05-11T15:29:24;100570.33;;;19.78;45.92
68145;BME280;55400;51.824;-0.196;2023-05-11T15:33:24;100570.33;;;19.74;45.92
68145;BME280;55400;51.824;-0.196;2023-05-11T15:37:24;100577.17;;;19.72;46.70
68145;BME280;55400;51.824;-0.196;2023-05-11T15:41:24;100584.56;;;19.62;46.54
68145;BME280;55400;51.824;-0.196;2023-05-11T15:45:24;100587.5;;;19.59;46.75
68145;BME280;55400;51.824;-0.196;2023-05-11T15:49:24;100591.27;;;19.55;47.55
68145;BME280;55400;51.824;-0.196;2023-05-11T15:53:24;100590.41;;;19.49;46.20
68145;BME280;55400;51.824;-0.196;2023-05-11T15:57:24;100593.25;;;19.48;46.20
68145;BME280;55400;51.824;-0.196;2023-05-11T16:01:24;100599.45;;;19.70;46.92
68145;BME280;55400;51.824;-0.196;2023-05-11T16:05:24;100597.72;;;20.03;46.92
68145;BME280;55400;51.824;-0.196;2023-05-11T16:09:24;100597.72;;;20.38;47.06
68145;BME280;55400;51.824;-0.196;2023-05-11T16:13:25;100607.62;;;20.43;46.43
68145;BME280;55400;51.824;-0.196;2023-05-11T16:17:24;100613.05;;;20.31;46.37
68145;BME280;55400;51.824;-0.196;2023-05-11T16:21:24;100613.05;;;20.52;47.09
68145;BME280;55400;51.824;-0.196;2023-05-11T16:25:24;100615.91;;;20.72;45.49
68145;BME280;55400;51.824;-0.196;2023-05-11T16:29:25;100614.0;;;20.60;45.49
68145;BME280;55400;51.824;-0.196;2023-05-11T16:33:24;100613.07;;;20.71;44.79
68145;BME280;55400;51.824;-0.196;2023-05-11T16:37:24;100611.14;;;20.93;44.64
68145;BME280;55400;51.824;-0.196;2023-05-11T16:41:25;100608.94;;;20.96;43.31
68145;BME280;55400;51.824;-0.196;2023-05-11T16:45:25;100608.94;;;21.12;43.22
68145;BME280;55400;51.824;-0.196;2023-05-11T16:49:24;100619.86;;;21.28;42.31
68145;BME280;55400;51.824;-0.196;2023-05-11T16:53:24;100626.84000000001;;;21.43;40.52
68145;BME280;55400;51.824;-0.196;2023-05-11T16:57:24;100626.84000000001;;;21.58;40.52
68145;BME280;55400;51.824;-0.196;2023-05-11T17:01:24;100632.79;;;21.66;40.90
68145;BME280;55400;51.824;-0.196;2023-05-11T17:05:24;100632.79;;;21.70;40.12
68145;BME280;55400;51.824;-0.196;2023-05-11T17:09:24;100632.89;;;21.77;40.33
68145;BME280;55400;51.824;-0.196;2023-05-11T17:13:24;100631.05;;;21.90;40.21
68145;BME280;55400;51.824;-0.196;2023-05-11T17:17:25;100637.28;;;21.92;40.21
68145;BME280;55400;51.824;-0.196;2023-05-11T17:21:24;100637.39;;;21.93;38.58
68145;BME280;55400;51.824;-0.196;2023-05-11T17:25:24;100641.74;;;21.92;38.58
68145;BME280;55400;51.824;-0.196;2023-05-11T17:29:25;100640.81;;;21.81;39.24
68145;BME280;55400;51.824;-0.196;2023-05-11T17:33:25;100650.03;;;21.42;39.68
68145;BME280;55400;51.824;-0.196;2023-05-11T17:37:24;100650.03;;;21.19;39.68
68145;BME280;55400;51.824;-0.196;2023-05-11T17:41:25;100653.59;;;21.08;39.77
68145;BME280;55400;51.824;-0.196;2023-05-11T17:45:24;100652.19;;;21.13;40.88
68145;BME280;55400;51.824;-0.196;2023-05-11T17:49:25;100653.49;;;21.04;40.19
68145;BME280;55400;51.824;-0.196;2023-05-11T17:53:24;100659.84;;;20.98;41.88
68145;BME280;55400;51.824;-0.196;2023-05-11T17:57:25;100664.67;;;21.07;43.17
68145;BME280;55400;51.824;-0.196;2023-05-11T18:01:24;100686.11;;;21.03;43.59
68145;BME280;55400;51.824;-0.196;2023-05-11T18:05:25;100684.38;;;20.63;43.59
68145;BME280;55400;51.824;-0.196;2023-05-11T18:09:24;100694.08;;;20.14;44.26
68145;BME280;55400;51.824;-0.196;2023-05-11T18:13:25;100696.55;;;19.71;45.25
68145;BME280;55400;51.824;-0.196;2023-05-11T18:17:25;100696.55;;;19.32;46.36
68145;BME280;55400;51.824;-0.196;2023-05-11T18:21:25;100714.37;;;19.05;47.58
68145;BME280;55400;51.824;-0.196;2023-05-11T18:25:25;100714.37;;;18.89;48.51
68145;BME280;55400;51.824;-0.196;2023-05-11T18:29:25;100715.14;;;18.83;49.17
68145;BME280;55400;51.824;-0.196;2023-05-11T18:33:25;100729.44;;;18.78;49.28
68145;BME280;55400;51.824;-0.196;2023-05-11T18:37:25;100735.67;;;18.80;49.28
68145;BME280;55400;51.824;-0.196;2023-05-11T18:41:25;100742.9;;;18.83;49.33
68145;BME280;55400;51.824;-0.196;2023-05-11T18:45:25;100742.9;;;18.82;49.38
68145;BME280;55400;51.824;-0.196;2023-05-11T18:49:25;100743.05;;;18.80;49.38
68145;BME280;55400;51.824;-0.196;2023-05-11T18:53:25;100753.25;;;18.77;49.28
68145;BME280;55400;51.824;-0.196;2023-05-11T18:57:25;100763.34000000001;;;18.71;49.36
68145;BME280;55400;51.824;-0.196;2023-05-11T19:01:25;100765.52;;;18.65;49.61
68145;BME280;55400;51.824;-0.196;2023-05-11T19:05:25;100773.47;;;18.42;49.53
68145;BME280;55400;51.824;-0.196;2023-05-11T19:09:25;100773.47;;;18.04;49.95
68145;BME280;55400;51.824;-0.196;2023-05-11T19:13:25;100783.51;;;17.51;51.02
68145;BME280;55400;51.824;-0.196;2023-05-11T19:17:25;100797.14;;;17.34;52.79
68145;BME280;55400;51.824;-0.196;2023-05-11T19:21:25;100809.27;;;17.35;53.86
68145;BME280;55400;51.824;-0.196;2023-05-11T19:25:25;100809.27;;;17.37;54.14
68145;BME280;55400;51.824;-0.196;2023-05-11T19:29:25;100818.67;;;17.35;54.64
68145;BME280;55400;51.824;-0.196;2023-05-11T19:37:25;100834.09;;;17.31;54.66
68145;BME280;55400;51.824;-0.196;2023-05-11T19:41:25;100837.83;;;17.26;54.71
68145;BME280;55400;51.824;-0.196;2023-05-11T19:45:25;100842.38;;;17.16;54.71
68145;BME280;55400;51.824;-0.196;2023-05-11T19:49:25;100842.38;;;17.07;54.84
68145;BME280;55400;51.824;-0.196;2023-05-11T19:53:25;100866.69;;;16.91;55.58
68145;BME280;55400;51.824;-0.196;2023-05-11T19:57:25;100883.95000000001;;;16.73;55.58
68145;BME280;55400;51.824;-0.196;2023-05-11T20:01:25;100885.51;;;16.62;56.66
68145;BME280;55400;51.824;-0.196;2023-05-11T20:05:25;100887.44;;;16.48;56.88
68145;BME280;55400;51.824;-0.196;2023-05-11T20:09:25;100887.44;;;16.34;56.88
68145;BME280;55400;51.824;-0.196;2023-05-11T20:13:25;100905.5;;;16.41;57.23
68145;BME280;55400;51.824;-0.196;2023-05-11T20:17:25;100905.5;;;16.51;57.37
68145;BME280;55400;51.824;-0.196;2023-05-11T20:21:25;100911.14;;;16.60;57.70
68145;BME280;55400;51.824;-0.196;2023-05-11T20:25:25;100913.51;;;16.78;57.70
68145;BME280;55400;51.824;-0.196;2023-05-11T20:29:25;100916.49;;;16.93;57.65
68145;BME280;55400;51.824;-0.196;2023-05-11T20:33:25;100916.49;;;16.99;57.59
68145;BME280;55400;51.824;-0.196;2023-05-11T20:37:25;100924.03;;;17.03;57.66
68145;BME280;55400;51.824;-0.196;2023-05-11T20:41:26;100923.46;;;17.07;57.78
68145;BME280;55400;51.824;-0.196;2023-05-11T20:45:25;100923.46;;;17.12;57.78
68145;BME280;55400;51.824;-0.196;2023-05-11T20:53:25;100911.94;;;17.08;58.21
68145;BME280;55400;51.824;-0.196;2023-05-11T20:57:25;100911.94;;;17.07;58.21
68145;BME280;55400;51.824;-0.196;2023-05-11T21:01:25;100914.38;;;17.00;58.71
68145;BME280;55400;51.824;-0.196;2023-05-11T21:05:25;100918.4;;;16.95;58.71
68145;BME280;55400;51.824;-0.196;2023-05-11T21:09:25;100919.22;;;16.88;58.95
68145;BME280;55400;51.824;-0.196;2023-05-11T21:13:25;100919.41;;;16.77;59.14
68145;BME280;55400;51.824;-0.196;2023-05-11T21:17:25;100921.28;;;16.64;59.30
68145;BME280;55400;51.824;-0.196;2023-05-11T21:21:25;100926.12000000001;;;16.54;59.46
68145;BME280;55400;51.824;-0.196;2023-05-11T21:25:25;100928.38;;;16.44;59.46
68145;BME280;55400;51.824;-0.196;2023-05-11T21:29:25;100928.38;;;16.29;59.50
68145;BME280;55400;51.824;-0.196;2023-05-11T21:33:25;100924.11;;;16.16;59.81
68145;BME280;55400;51.824;-0.196;2023-05-11T21:37:25;100924.11;;;16.08;59.81
68145;BME280;55400;51.824;-0.196;2023-05-11T21:41:25;100929.98999999999;;;16.02;59.92
68145;BME280;55400;51.824;-0.196;2023-05-11T21:45:25;100930.02;;;15.91;59.87
68145;BME280;55400;51.824;-0.196;2023-05-11T21:49:26;100926.61;;;15.82;60.00
68145;BME280;55400;51.824;-0.196;2023-05-11T21:53:25;100927.36;;;15.72;60.00
68145;BME280;55400;51.824;-0.196;2023-05-11T21:57:25;100935.13;;;15.63;60.03
68145;BME280;55400;51.824;-0.196;2023-05-11T22:01:25;100935.70999999999;;;15.56;60.09
68145;BME280;55400;51.824;-0.196;2023-05-11T22:05:25;100937.03;;;15.43;60.05
68145;BME280;55400;51.824;-0.196;2023-05-11T22:09:25;100942.6;;;15.33;60.17
68145;BME280;55400;51.824;-0.196;2023-05-11T22:13:25;100945.96;;;15.25;60.59